Time;durP1;ratioP1;P1;durP2;ratioP2;P2;SDS_P1;SDS_P2;PMS_P1;PMS_P2;Temp;Humidity;BMP_temperature;BMP_pressure;BME280_temperature;BME280_humidity;BME280_pressure;Samples;Min_cycle;Max_cycle;Signal;HPM_P1;HPM_P2
2022/01/26 00:06:59;;;;;;;19.75;9.70;;;;;;;;;;5033296;28;20182;-57
2022/01/26 00:09:27;;;;;;;13.40;8.52;;;;;;;;;;5033529;28;20583;-57
2022/01/26 00:11:56;;;;;;;16.10;10.15;;;;;;;;;;5033465;28;20209;-57
2022/01/26 00:14:24;;;;;;;16.00;9.25;;;;;;;;;;5033312;28;20237;-57
2022/01/26 00:16:52;;;;;;;15.98;9.45;;;;;;;;;;5033428;28;20213;-57
2022/01/26 00:19:23;;;;;;;17.30;9.95;;;;;;;;;;5033501;28;20210;-56
2022/01/26 00:21:52;;;;;;;17.52;10.20;;;;;;;;;;5033568;28;20260;-58
2022/01/26 00:27:06;;;;;;;21.20;11.40;;;;;;;;;;5037482;28;20213;-57
2022/01/26 00:29:37;;;;;;;16.88;10.50;;;;;;;;;;5037378;28;20273;-57
2022/01/26 00:40:25;;;;;;;16.98;9.70;;;;;;;;;;5037386;28;20209;-56
2022/01/26 00:42:56;;;;;;;18.08;11.20;;;;;;;;;;5037073;28;20190;-57
2022/01/26 00:45:32;;;;;;;16.02;9.30;;;;;;;;;;5036968;28;20598;-56
2022/01/26 00:48:02;;;;;;;17.60;10.30;;;;;;;;;;5036848;28;20653;-56
2022/01/26 00:50:30;;;;;;;16.13;9.80;;;;;;;;;;5036589;28;20198;-56
2022/01/26 00:52:57;;;;;;;19.23;10.80;;;;;;;;;;5036753;28;20202;-56
2022/01/26 00:55:24;;;;;;;16.33;10.40;;;;;;;;;;5036464;28;20736;-56
2022/01/26 00:57:52;;;;;;;21.27;11.35;;;;;;;;;;5037046;28;20202;-56
2022/01/26 01:00:20;;;;;;;17.27;9.45;;;;;;;;;;5036961;28;20202;-56
2022/01/26 01:02:50;;;;;;;17.80;9.73;;;;;;;;;;5036614;28;20695;-56
2022/01/26 01:05:19;;;;;;;17.58;9.93;;;;;;;;;;5036822;28;20595;-56
2022/01/26 01:07:49;;;;;;;19.35;9.30;;;;;;;;;;5036576;28;20198;-57
2022/01/26 01:10:21;;;;;;;21.30;10.20;;;;;;;;;;5036651;28;20199;-55
2022/01/26 01:12:50;;;;;;;20.25;10.93;;;;;;;;;;5036965;28;20187;-55
2022/01/26 01:15:18;;;;;;;18.45;9.40;;;;;;;;;;5036555;28;20230;-55
2022/01/26 01:17:50;;;;;;;17.65;10.45;;;;;;;;;;5036783;28;20202;-56
2022/01/26 01:20:35;;;;;;;25.30;11.15;;;;;;;;;;5036797;28;20186;-56
2022/01/26 01:23:27;;;;;;;20.10;10.63;;;;;;;;;;5037145;28;20206;-56
2022/01/26 01:29:08;;;;;;;21.98;10.63;;;;;;;;;;4994357;28;20254;-56
2022/01/26 01:31:44;;;;;;;17.30;9.43;;;;;;;;;;5030798;28;20212;-56
2022/01/26 01:34:12;;;;;;;20.50;11.15;;;;;;;;;;5035631;28;20316;-56
2022/01/26 01:36:43;;;;;;;19.80;11.98;;;;;;;;;;5034989;28;20633;-56
2022/01/26 01:39:11;;;;;;;19.25;10.35;;;;;;;;;;5036006;28;20186;-56
2022/01/26 01:41:39;;;;;;;17.70;11.80;;;;;;;;;;5035799;28;20202;-56
2022/01/26 01:44:07;;;;;;;17.10;9.68;;;;;;;;;;5035779;28;20218;-56
2022/01/26 01:46:34;;;;;;;21.65;10.65;;;;;;;;;;5035424;28;20206;-56
2022/01/26 01:49:02;;;;;;;18.25;11.00;;;;;;;;;;5035766;28;20218;-56
2022/01/26 01:51:33;;;;;;;20.52;9.70;;;;;;;;;;5035440;28;20206;-56
2022/01/26 01:54:02;;;;;;;17.60;10.65;;;;;;;;;;5035638;28;20230;-56
2022/01/26 01:56:30;;;;;;;19.35;11.27;;;;;;;;;;5036504;28;20213;-56
2022/01/26 01:58:58;;;;;;;21.50;11.95;;;;;;;;;;5035546;28;20222;-56
2022/01/26 02:01:26;;;;;;;19.80;10.70;;;;;;;;;;5036213;28;20208;-56
2022/01/26 02:03:53;;;;;;;23.08;11.30;;;;;;;;;;5035442;28;20218;-56
2022/01/26 02:06:22;;;;;;;18.95;11.43;;;;;;;;;;5035335;28;20203;-56
2022/01/26 02:08:49;;;;;;;23.27;11.55;;;;;;;;;;5035320;28;20198;-56
2022/01/26 02:11:18;;;;;;;19.52;10.85;;;;;;;;;;5035474;28;20210;-56
2022/01/26 02:13:54;;;;;;;25.00;11.57;;;;;;;;;;5035038;28;20222;-56
2022/01/26 02:16:27;;;;;;;18.85;10.35;;;;;;;;;;5035373;28;20190;-56
2022/01/26 02:19:21;;;;;;;21.25;10.23;;;;;;;;;;5035168;28;20182;-56
2022/01/26 02:50:09;;;;;;;15.75;9.75;;;;;;;;;;5034220;28;20182;-56
2022/01/26 02:52:57;;;;;;;19.00;9.73;;;;;;;;;;5034406;28;20191;-56
2022/01/26 02:55:40;;;;;;;17.80;10.90;;;;;;;;;;5033999;28;20651;-56
2022/01/26 03:01:27;;;;;;;17.30;10.77;;;;;;;;;;4993508;28;20266;-56
2022/01/26 03:04:03;;;;;;;22.08;9.98;;;;;;;;;;4992536;28;20597;-56
2022/01/26 03:06:37;;;;;;;18.85;9.98;;;;;;;;;;5019046;28;20205;-56
2022/01/26 03:09:10;;;;;;;17.10;10.13;;;;;;;;;;5035096;28;20534;-56
2022/01/26 03:11:41;;;;;;;21.67;10.43;;;;;;;;;;5034163;28;20218;-56
2022/01/26 03:14:17;;;;;;;14.27;9.15;;;;;;;;;;5033835;28;20230;-55
2022/01/26 03:16:49;;;;;;;15.50;8.05;;;;;;;;;;5034337;28;20190;-56
2022/01/26 03:19:21;;;;;;;18.77;10.43;;;;;;;;;;5034141;28;20272;-56
2022/01/26 03:22:04;;;;;;;18.50;10.35;;;;;;;;;;5034504;28;20209;-56
2022/01/26 03:30:19;;;;;;;13.70;7.28;;;;;;;;;;5034240;28;20186;-56
2022/01/26 03:33:08;;;;;;;17.05;9.75;;;;;;;;;;5034098;28;20187;-55
2022/01/26 03:35:42;;;;;;;15.60;9.00;;;;;;;;;;5033500;28;20227;-55
2022/01/26 03:38:17;;;;;;;19.55;10.38;;;;;;;;;;5033745;28;20186;-55
2022/01/26 03:40:45;;;;;;;17.75;9.45;;;;;;;;;;5033466;28;20240;-56
2022/01/26 03:43:13;;;;;;;18.30;9.68;;;;;;;;;;5033875;28;20234;-55
2022/01/26 03:45:41;;;;;;;19.77;9.60;;;;;;;;;;5034744;28;20217;-55
2022/01/26 03:48:08;;;;;;;17.23;9.75;;;;;;;;;;5033594;28;20606;-56
2022/01/26 03:50:35;;;;;;;19.20;10.10;;;;;;;;;;5033614;28;20206;-57
2022/01/26 03:53:03;;;;;;;17.52;8.80;;;;;;;;;;5033667;28;20214;-56
2022/01/26 03:55:30;;;;;;;19.13;9.85;;;;;;;;;;5033129;28;20225;-56
2022/01/26 03:57:57;;;;;;;16.60;9.13;;;;;;;;;;5033090;28;20686;-56
2022/01/26 04:00:26;;;;;;;19.15;8.25;;;;;;;;;;5033056;28;20209;-56
2022/01/26 04:02:53;;;;;;;16.95;9.23;;;;;;;;;;5033083;28;20209;-56
2022/01/26 04:05:21;;;;;;;20.48;10.70;;;;;;;;;;5033369;28;20240;-56
2022/01/26 04:09:18;;;;;;;18.05;9.68;;;;;;;;;;5091357;27;20615;-56
2022/01/26 04:11:48;;;;;;;22.05;11.68;;;;;;;;;;5090953;28;20215;-57
2022/01/26 04:14:19;;;;;;;20.50;10.65;;;;;;;;;;5091293;28;20584;-56
2022/01/26 04:16:47;;;;;;;20.05;10.77;;;;;;;;;;5091157;28;20545;-56
2022/01/26 04:19:15;;;;;;;22.35;11.45;;;;;;;;;;5091159;28;20600;-56
2022/01/26 04:24:29;;;;;;;16.00;9.52;;;;;;;;;;5049001;28;20202;-59
2022/01/26 04:27:00;;;;;;;22.35;11.32;;;;;;;;;;5051000;28;20284;-58
2022/01/26 04:29:30;;;;;;;21.08;11.40;;;;;;;;;;5050807;28;20273;-58
2022/01/26 04:31:58;;;;;;;19.65;10.07;;;;;;;;;;5051734;28;20218;-58
2022/01/26 04:34:26;;;;;;;20.60;10.38;;;;;;;;;;5051623;28;20205;-59
2022/01/26 04:36:57;;;;;;;20.85;11.25;;;;;;;;;;5050542;28;20670;-59
2022/01/26 04:39:30;;;;;;;19.80;11.07;;;;;;;;;;5050455;28;20653;-58
2022/01/26 04:42:01;;;;;;;16.58;10.15;;;;;;;;;;5051134;28;20257;-59
2022/01/26 04:44:34;;;;;;;18.15;10.57;;;;;;;;;;5051664;28;20182;-57
2022/01/26 04:47:01;;;;;;;21.83;10.98;;;;;;;;;;5062387;28;20217;-58
2022/01/26 04:49:29;;;;;;;25.15;10.55;;;;;;;;;;5059882;28;20201;-57
2022/01/26 04:51:56;;;;;;;21.08;10.38;;;;;;;;;;5057382;28;20225;-59
2022/01/26 04:54:23;;;;;;;18.48;11.73;;;;;;;;;;5055623;28;20202;-58
2022/01/26 04:56:52;;;;;;;23.67;10.75;;;;;;;;;;5056513;28;20209;-58
2022/01/26 04:59:19;;;;;;;20.77;9.00;;;;;;;;;;5054354;28;20197;-58
2022/01/26 05:01:47;;;;;;;19.60;9.82;;;;;;;;;;5054738;28;20655;-58
2022/01/26 05:04:14;;;;;;;21.45;10.15;;;;;;;;;;5056764;28;20206;-58
2022/01/26 05:06:41;;;;;;;20.30;10.50;;;;;;;;;;5055908;28;20202;-57
2022/01/26 05:09:09;;;;;;;22.17;10.68;;;;;;;;;;5057023;28;20221;-57
2022/01/26 05:11:39;;;;;;;23.10;11.55;;;;;;;;;;5054072;28;20221;-58
2022/01/26 05:14:08;;;;;;;21.08;11.05;;;;;;;;;;5054603;28;20652;-58
2022/01/26 05:16:35;;;;;;;21.45;10.73;;;;;;;;;;5053539;28;20222;-58
2022/01/26 05:19:04;;;;;;;24.58;11.75;;;;;;;;;;5047182;28;20208;-58
2022/01/26 05:21:32;;;;;;;25.95;12.40;;;;;;;;;;5039088;28;20241;-59
2022/01/26 05:23:59;;;;;;;25.08;14.35;;;;;;;;;;5037924;28;20597;-58
2022/01/26 05:26:26;;;;;;;21.67;11.25;;;;;;;;;;5036311;28;20203;-58
2022/01/26 05:28:54;;;;;;;21.08;11.50;;;;;;;;;;5037021;28;20230;-58
2022/01/26 05:31:22;;;;;;;23.27;11.45;;;;;;;;;;5035865;28;20226;-57
2022/01/26 05:33:51;;;;;;;26.92;14.00;;;;;;;;;;5036122;28;20679;-58
2022/01/26 05:36:18;;;;;;;25.00;13.02;;;;;;;;;;5036402;28;20221;-58
2022/01/26 05:38:46;;;;;;;32.15;15.10;;;;;;;;;;5036921;28;20205;-58
2022/01/26 05:41:13;;;;;;;30.33;14.38;;;;;;;;;;5035541;28;20260;-58
2022/01/26 05:43:40;;;;;;;28.75;14.75;;;;;;;;;;5035679;28;20234;-58
2022/01/26 05:46:12;;;;;;;31.15;15.65;;;;;;;;;;5035949;28;20202;-58
2022/01/26 05:48:45;;;;;;;34.50;14.85;;;;;;;;;;5035855;28;20587;-58
2022/01/26 05:51:12;;;;;;;33.67;16.92;;;;;;;;;;5036149;28;20284;-59
2022/01/26 05:53:40;;;;;;;36.40;19.17;;;;;;;;;;5035359;28;20206;-59
2022/01/26 05:56:08;;;;;;;37.30;17.83;;;;;;;;;;5036059;28;20260;-58
2022/01/26 05:58:35;;;;;;;43.20;20.60;;;;;;;;;;5036159;28;20581;-57
2022/01/26 06:01:03;;;;;;;34.83;18.83;;;;;;;;;;5035658;28;20233;-57
2022/01/26 06:03:31;;;;;;;39.88;19.35;;;;;;;;;;5036313;28;20543;-58
2022/01/26 06:06:00;;;;;;;55.97;22.90;;;;;;;;;;5035162;28;20293;-58
2022/01/26 06:08:27;;;;;;;46.08;21.65;;;;;;;;;;5035299;28;20218;-58
2022/01/26 06:10:56;;;;;;;50.90;23.58;;;;;;;;;;5035501;28;20226;-57
2022/01/26 06:13:23;;;;;;;57.55;23.40;;;;;;;;;;5035047;28;20717;-58
2022/01/26 06:15:50;;;;;;;48.90;23.33;;;;;;;;;;5035551;28;20225;-58
2022/01/26 06:18:18;;;;;;;51.67;23.23;;;;;;;;;;5035211;28;20603;-57
2022/01/26 06:20:46;;;;;;;52.13;23.73;;;;;;;;;;5034802;28;20230;-59
2022/01/26 06:23:14;;;;;;;52.70;25.40;;;;;;;;;;5035155;28;20571;-58
2022/01/26 06:25:42;;;;;;;49.28;21.80;;;;;;;;;;5035002;28;20580;-58
2022/01/26 06:28:12;;;;;;;43.20;20.73;;;;;;;;;;5034961;28;20317;-58
2022/01/26 06:30:40;;;;;;;50.65;21.60;;;;;;;;;;5033694;28;20276;-57
2022/01/26 06:33:09;;;;;;;48.78;23.88;;;;;;;;;;5034981;28;20203;-57
2022/01/26 06:35:36;;;;;;;44.50;21.77;;;;;;;;;;5034695;28;20206;-58
2022/01/26 06:38:04;;;;;;;46.65;21.27;;;;;;;;;;5036471;28;20195;-57
2022/01/26 06:40:33;;;;;;;50.92;21.17;;;;;;;;;;5035099;28;20745;-57
2022/01/26 06:43:04;;;;;;;55.63;22.75;;;;;;;;;;5034425;28;20216;-58
2022/01/26 06:45:34;;;;;;;55.03;22.30;;;;;;;;;;5035042;28;20186;-57
2022/01/26 06:50:43;;;;;;;57.00;23.35;;;;;;;;;;5032550;28;20588;-56
2022/01/26 06:53:13;;;;;;;52.08;22.90;;;;;;;;;;5034106;28;20253;-56
2022/01/26 06:55:42;;;;;;;52.47;22.48;;;;;;;;;;5033850;28;20650;-56
2022/01/26 06:58:10;;;;;;;58.63;23.77;;;;;;;;;;5034127;28;20199;-57
2022/01/26 07:00:37;;;;;;;53.78;21.80;;;;;;;;;;5034076;28;20203;-57
2022/01/26 07:03:05;;;;;;;58.13;23.05;;;;;;;;;;5034256;28;20297;-57
2022/01/26 07:05:32;;;;;;;52.72;21.23;;;;;;;;;;5034276;28;20211;-57
2022/01/26 07:08:00;;;;;;;45.17;19.98;;;;;;;;;;5033819;28;20325;-56
2022/01/26 07:10:27;;;;;;;60.15;23.02;;;;;;;;;;5033891;28;20289;-58
2022/01/26 07:12:56;;;;;;;52.55;21.60;;;;;;;;;;5033936;28;20665;-55
2022/01/26 07:23:50;;;;;;;56.03;22.52;;;;;;;;;;5009477;28;20264;-59
2022/01/26 07:26:18;;;;;;;57.38;23.45;;;;;;;;;;5033816;28;20210;-58
2022/01/26 07:28:46;;;;;;;56.72;23.17;;;;;;;;;;5033566;28;20222;-59
2022/01/26 07:31:14;;;;;;;56.63;22.85;;;;;;;;;;5033433;28;20610;-57
2022/01/26 07:33:42;;;;;;;57.83;24.50;;;;;;;;;;5034152;28;20202;-57
2022/01/26 07:36:09;;;;;;;72.65;26.58;;;;;;;;;;5034002;28;20617;-57
2022/01/26 07:38:37;;;;;;;65.97;24.77;;;;;;;;;;5038167;28;20666;-58
2022/01/26 07:41:05;;;;;;;60.13;25.48;;;;;;;;;;5033225;28;20604;-60
2022/01/26 07:43:32;;;;;;;60.70;24.08;;;;;;;;;;5033468;28;20689;-60
2022/01/26 07:46:01;;;;;;;56.35;22.48;;;;;;;;;;5034060;28;20206;-58
2022/01/26 07:48:28;;;;;;;57.35;25.30;;;;;;;;;;5033665;28;20222;-58
2022/01/26 07:50:56;;;;;;;59.15;24.15;;;;;;;;;;5033729;28;20242;-58
2022/01/26 07:53:24;;;;;;;65.30;25.17;;;;;;;;;;5033899;28;20296;-57
2022/01/26 07:55:51;;;;;;;67.15;29.58;;;;;;;;;;5033957;28;20793;-58
2022/01/26 07:58:20;;;;;;;63.22;24.48;;;;;;;;;;5035115;28;20689;-59
2022/01/26 08:00:47;;;;;;;56.92;24.63;;;;;;;;;;5033370;28;20285;-58
2022/01/26 08:03:20;;;;;;;56.78;22.45;;;;;;;;;;5033792;28;20210;-60
2022/01/26 08:05:48;;;;;;;57.50;23.42;;;;;;;;;;5034187;28;20269;-59
2022/01/26 08:08:15;;;;;;;58.88;24.30;;;;;;;;;;5033106;28;20221;-59
2022/01/26 08:10:42;;;;;;;62.35;26.30;;;;;;;;;;5033212;28;20222;-59
2022/01/26 08:13:10;;;;;;;55.72;25.42;;;;;;;;;;5033148;28;20205;-58
2022/01/26 08:15:37;;;;;;;64.80;24.13;;;;;;;;;;5033661;28;20602;-57
2022/01/26 08:18:06;;;;;;;63.08;24.73;;;;;;;;;;5033130;28;20202;-58
2022/01/26 08:20:35;;;;;;;61.03;23.88;;;;;;;;;;5032882;28;20237;-57
2022/01/26 08:23:02;;;;;;;59.13;23.85;;;;;;;;;;5033738;28;20622;-58
2022/01/26 08:25:30;;;;;;;69.47;26.15;;;;;;;;;;5035303;28;20210;-58
2022/01/26 08:28:07;;;;;;;64.10;26.02;;;;;;;;;;5034957;28;20210;-58
2022/01/26 08:30:37;;;;;;;65.45;23.40;;;;;;;;;;5035814;28;20194;-58
2022/01/26 08:33:05;;;;;;;63.67;25.02;;;;;;;;;;5033955;28;20731;-57
2022/01/26 08:35:32;;;;;;;53.88;23.42;;;;;;;;;;5034328;28;20202;-59
2022/01/26 08:38:03;;;;;;;64.72;26.40;;;;;;;;;;5034004;28;20217;-59
2022/01/26 08:40:33;;;;;;;72.28;28.08;;;;;;;;;;5035073;28;20194;-56
2022/01/26 08:43:00;;;;;;;62.08;26.67;;;;;;;;;;5033636;28;20202;-56
2022/01/26 08:45:28;;;;;;;69.38;27.05;;;;;;;;;;5032851;28;20239;-56
2022/01/26 08:47:55;;;;;;;65.22;26.88;;;;;;;;;;5033152;28;20728;-57
2022/01/26 08:50:23;;;;;;;71.07;29.13;;;;;;;;;;5033070;28;20222;-57
2022/01/26 08:52:51;;;;;;;71.63;28.88;;;;;;;;;;5033890;28;20237;-57
2022/01/26 08:55:20;;;;;;;75.35;29.40;;;;;;;;;;5036916;28;20209;-58
2022/01/26 08:57:48;;;;;;;74.03;27.80;;;;;;;;;;5041222;28;20206;-58
2022/01/26 09:00:16;;;;;;;54.33;23.42;;;;;;;;;;5037751;28;20198;-58
2022/01/26 09:02:44;;;;;;;81.32;32.28;;;;;;;;;;5037816;28;20599;-58
2022/01/26 09:05:11;;;;;;;85.82;36.40;;;;;;;;;;5036868;28;20198;-57
2022/01/26 09:07:45;;;;;;;85.28;34.22;;;;;;;;;;5037226;28;20573;-58
2022/01/26 09:10:12;;;;;;;88.72;34.85;;;;;;;;;;5036688;28;20206;-58
2022/01/26 09:12:44;;;;;;;86.50;33.47;;;;;;;;;;5036922;28;20224;-58
2022/01/26 09:15:12;;;;;;;74.30;31.70;;;;;;;;;;5039100;28;20226;-58
2022/01/26 09:17:40;;;;;;;78.07;31.50;;;;;;;;;;5039642;28;20233;-57
2022/01/26 09:20:08;;;;;;;78.03;31.42;;;;;;;;;;5040117;28;20332;-58
2022/01/26 09:22:36;;;;;;;76.53;27.77;;;;;;;;;;5038975;28;20241;-58
2022/01/26 09:25:03;;;;;;;81.82;32.08;;;;;;;;;;5040324;28;20206;-57
2022/01/26 09:27:30;;;;;;;71.32;28.42;;;;;;;;;;5038088;28;20298;-57
2022/01/26 09:29:59;;;;;;;78.72;28.80;;;;;;;;;;5037987;28;20226;-58
2022/01/26 09:32:26;;;;;;;72.70;31.27;;;;;;;;;;5037588;28;20226;-60
2022/01/26 09:34:54;;;;;;;78.25;30.15;;;;;;;;;;5036772;28;20207;-59
2022/01/26 09:37:22;;;;;;;67.25;26.98;;;;;;;;;;5036257;28;20705;-59
2022/01/26 09:39:49;;;;;;;71.82;26.00;;;;;;;;;;5035917;28;20198;-59
2022/01/26 09:42:17;;;;;;;75.45;29.92;;;;;;;;;;5036041;28;20596;-59
2022/01/26 09:44:45;;;;;;;74.13;28.77;;;;;;;;;;5037173;28;20202;-59
2022/01/26 09:47:14;;;;;;;67.25;25.70;;;;;;;;;;5037318;28;20234;-60
2022/01/26 09:49:41;;;;;;;76.68;27.85;;;;;;;;;;5035734;28;20219;-59
2022/01/26 09:52:19;;;;;;;70.05;29.17;;;;;;;;;;5036005;28;20248;-60
2022/01/26 09:54:47;;;;;;;69.32;25.75;;;;;;;;;;5035977;28;20197;-60
2022/01/26 09:57:14;;;;;;;78.75;29.40;;;;;;;;;;5035550;28;20210;-60
2022/01/26 09:59:41;;;;;;;57.22;20.95;;;;;;;;;;5035619;28;20203;-58
2022/01/26 10:02:09;;;;;;;86.35;30.88;;;;;;;;;;5035939;28;20222;-63
2022/01/26 10:04:40;;;;;;;66.07;28.00;;;;;;;;;;5036314;28;20199;-58
2022/01/26 10:07:14;;;;;;;80.07;30.45;;;;;;;;;;5036276;28;20190;-59
2022/01/26 10:09:52;;;;;;;65.90;26.80;;;;;;;;;;5035933;28;20616;-59
2022/01/26 10:15:29;;;;;;;69.68;26.27;;;;;;;;;;5012234;28;20203;-59
2022/01/26 10:18:08;;;;;;;64.72;24.73;;;;;;;;;;5036920;28;20190;-60
2022/01/26 10:20:50;;;;;;;71.00;28.95;;;;;;;;;;5036142;28;20199;-58
2022/01/26 10:23:18;;;;;;;79.63;29.33;;;;;;;;;;5035538;28;20194;-58
2022/01/26 10:25:47;;;;;;;63.63;26.75;;;;;;;;;;5034998;28;20226;-58
2022/01/26 10:28:16;;;;;;;62.60;28.45;;;;;;;;;;5035314;28;20634;-60
2022/01/26 10:30:49;;;;;;;71.80;29.50;;;;;;;;;;5034655;28;20222;-59
2022/01/26 10:33:18;;;;;;;65.55;28.23;;;;;;;;;;5035236;28;20193;-60
2022/01/26 10:35:47;;;;;;;75.72;29.67;;;;;;;;;;5034828;28;20202;-58
2022/01/26 10:38:16;;;;;;;75.88;28.63;;;;;;;;;;5034941;28;20614;-58
2022/01/26 10:40:43;;;;;;;56.08;26.42;;;;;;;;;;5034647;28;20214;-58
2022/01/26 10:43:12;;;;;;;66.75;28.15;;;;;;;;;;5034438;28;20233;-59
2022/01/26 10:45:52;;;;;;;66.40;27.95;;;;;;;;;;5034147;28;20567;-58
2022/01/26 10:48:24;;;;;;;76.05;32.15;;;;;;;;;;5034643;28;20328;-59
2022/01/26 10:54:20;;;;;;;63.40;26.88;;;;;;;;;;5034590;28;20308;-59
2022/01/26 10:56:49;;;;;;;63.65;29.45;;;;;;;;;;5034638;28;20182;-59
2022/01/26 10:59:16;;;;;;;69.35;27.75;;;;;;;;;;5034336;28;20201;-58
2022/01/26 11:01:44;;;;;;;82.88;30.40;;;;;;;;;;5034879;28;20230;-60
2022/01/26 11:04:11;;;;;;;73.55;29.80;;;;;;;;;;5035432;28;20206;-58
2022/01/26 11:06:42;;;;;;;66.07;30.10;;;;;;;;;;5035626;28;20214;-58
2022/01/26 11:09:13;;;;;;;61.85;26.85;;;;;;;;;;5035240;28;20209;-58
2022/01/26 11:11:41;;;;;;;68.43;29.73;;;;;;;;;;5036016;28;20574;-59
2022/01/26 11:14:21;;;;;;;76.50;28.75;;;;;;;;;;5034495;28;20233;-59
2022/01/26 11:16:50;;;;;;;70.75;29.33;;;;;;;;;;5033730;28;20182;-59
2022/01/26 11:19:17;;;;;;;71.32;30.30;;;;;;;;;;5034690;28;20234;-59
2022/01/26 11:21:47;;;;;;;68.15;28.40;;;;;;;;;;5033667;28;20237;-60
2022/01/26 11:24:20;;;;;;;79.90;30.67;;;;;;;;;;5034208;28;20202;-60
2022/01/26 11:26:49;;;;;;;76.20;30.20;;;;;;;;;;5033922;28;20217;-59
2022/01/26 11:29:17;;;;;;;80.20;31.30;;;;;;;;;;5033893;28;20285;-59
2022/01/26 11:31:45;;;;;;;68.60;30.38;;;;;;;;;;5033783;28;20225;-59
2022/01/26 11:34:12;;;;;;;74.18;31.67;;;;;;;;;;5033575;28;20207;-58
2022/01/26 11:36:42;;;;;;;67.70;29.73;;;;;;;;;;5034235;28;20206;-60
2022/01/26 11:42:31;;;;;;;77.80;33.38;;;;;;;;;;5034025;28;20225;-59
2022/01/26 11:45:08;;;;;;;74.47;31.52;;;;;;;;;;5033814;28;20187;-60
2022/01/26 11:47:37;;;;;;;74.75;30.52;;;;;;;;;;5034109;28;20293;-60
2022/01/26 11:50:06;;;;;;;72.60;31.63;;;;;;;;;;5033880;28;20223;-59
2022/01/26 11:52:37;;;;;;;71.10;30.38;;;;;;;;;;5035220;28;20248;-58
2022/01/26 11:55:10;;;;;;;79.78;33.75;;;;;;;;;;5036337;28;20218;-59
2022/01/26 11:57:43;;;;;;;67.38;29.85;;;;;;;;;;5036436;28;20194;-58
2022/01/26 12:00:16;;;;;;;71.10;31.10;;;;;;;;;;5036532;28;20179;-59
2022/01/26 12:02:52;;;;;;;71.13;33.80;;;;;;;;;;5036004;28;20222;-59
2022/01/26 12:05:22;;;;;;;75.45;33.35;;;;;;;;;;5034630;28;20191;-58
2022/01/26 12:07:51;;;;;;;74.78;31.15;;;;;;;;;;5036321;28;20207;-59
2022/01/26 12:10:26;;;;;;;71.05;31.63;;;;;;;;;;5035678;28;20218;-58
2022/01/26 12:13:00;;;;;;;79.07;29.27;;;;;;;;;;5035187;28;20213;-60
2022/01/26 12:15:30;;;;;;;71.80;31.40;;;;;;;;;;5035454;28;20221;-59
2022/01/26 12:18:13;;;;;;;73.40;30.80;;;;;;;;;;5034275;28;20240;-59
2022/01/26 12:32:12;;;;;;;81.53;33.90;;;;;;;;;;5037434;28;20591;-59
2022/01/26 12:34:53;;;;;;;75.22;32.35;;;;;;;;;;5037255;28;20191;-59
2022/01/26 12:37:35;;;;;;;72.45;31.27;;;;;;;;;;5036881;28;20265;-60
2022/01/26 12:43:05;;;;;;;75.97;34.40;;;;;;;;;;5036770;28;20178;-59
2022/01/26 12:45:33;;;;;;;69.40;28.83;;;;;;;;;;5036921;28;20198;-59
2022/01/26 12:48:00;;;;;;;79.53;34.50;;;;;;;;;;5036819;28;20285;-60
2022/01/26 12:50:28;;;;;;;80.18;33.88;;;;;;;;;;5037370;28;20575;-60
2022/01/26 12:52:57;;;;;;;72.90;32.00;;;;;;;;;;5037049;28;20202;-60
2022/01/26 12:55:26;;;;;;;72.57;33.05;;;;;;;;;;5037164;28;20198;-59
2022/01/26 12:57:55;;;;;;;80.03;32.30;;;;;;;;;;5037810;28;20213;-60
2022/01/26 13:00:24;;;;;;;71.35;30.58;;;;;;;;;;5037406;28;20206;-59
2022/01/26 13:02:51;;;;;;;71.70;31.88;;;;;;;;;;5036493;28;20202;-59
2022/01/26 13:05:24;;;;;;;77.28;32.97;;;;;;;;;;5036422;28;20225;-58
2022/01/26 13:08:00;;;;;;;76.13;33.03;;;;;;;;;;5037679;28;20612;-59
2022/01/26 13:10:28;;;;;;;72.63;32.58;;;;;;;;;;5036992;28;20268;-58
2022/01/26 13:12:57;;;;;;;71.35;32.08;;;;;;;;;;5038882;28;20225;-60
2022/01/26 13:15:40;;;;;;;82.80;34.60;;;;;;;;;;5039502;28;20686;-59
2022/01/26 13:18:35;;;;;;;67.13;31.13;;;;;;;;;;5038151;28;20190;-59
2022/01/26 13:21:32;;;;;;;65.65;30.50;;;;;;;;;;5037317;28;20326;-60
2022/01/26 13:24:08;;;;;;;79.45;29.85;;;;;;;;;;5036269;28;20202;-60
2022/01/26 13:26:44;;;;;;;76.93;30.30;;;;;;;;;;5036435;28;20194;-59
2022/01/26 13:29:31;;;;;;;72.80;31.40;;;;;;;;;;5036387;28;20190;-60
2022/01/26 13:35:03;;;;;;;75.15;31.30;;;;;;;;;;5035937;28;20202;-60
2022/01/26 13:37:41;;;;;;;84.50;33.55;;;;;;;;;;5036299;28;20190;-59
2022/01/26 13:40:23;;;;;;;88.00;35.70;;;;;;;;;;5035390;28;20186;-59
2022/01/26 13:51:35;;;;;;;77.38;33.50;;;;;;;;;;4994220;28;20216;-59
2022/01/26 13:54:27;;;;;;;86.72;33.22;;;;;;;;;;4993743;28;20331;-59
2022/01/26 13:57:10;;;;;;;77.60;33.03;;;;;;;;;;5022605;28;20221;-60
2022/01/26 13:59:44;;;;;;;83.60;34.58;;;;;;;;;;5036412;28;20537;-60
2022/01/26 14:02:13;;;;;;;82.93;33.83;;;;;;;;;;5035167;28;20264;-58
2022/01/26 14:04:41;;;;;;;86.75;35.83;;;;;;;;;;5035559;28;20209;-59
2022/01/26 14:07:08;;;;;;;75.88;32.50;;;;;;;;;;5035218;28;20666;-60
2022/01/26 14:09:36;;;;;;;84.72;34.05;;;;;;;;;;5035886;28;20214;-60
2022/01/26 14:12:03;;;;;;;94.88;35.30;;;;;;;;;;5035069;28;20273;-58
2022/01/26 14:14:34;;;;;;;89.28;36.75;;;;;;;;;;5035252;28;20202;-60
2022/01/26 14:17:04;;;;;;;84.68;35.28;;;;;;;;;;5035107;28;20194;-60
2022/01/26 14:19:39;;;;;;;79.53;33.67;;;;;;;;;;5035421;28;20207;-60
2022/01/26 14:25:04;;;;;;;88.00;33.85;;;;;;;;;;5026287;28;20681;-60
2022/01/26 14:27:38;;;;;;;87.10;34.15;;;;;;;;;;5035528;28;20377;-59
2022/01/26 14:30:17;;;;;;;83.97;32.85;;;;;;;;;;5035672;28;20244;-59
2022/01/26 14:35:54;;;;;;;88.18;35.90;;;;;;;;;;5035296;28;20254;-59
2022/01/26 14:55:13;;;;;;;86.97;32.67;;;;;;;;;;5034766;28;20178;-59
2022/01/26 15:01:02;;;;;;;81.18;34.83;;;;;;;;;;5034140;28;20264;-60
2022/01/26 15:32:11;;;;;;;72.35;31.27;;;;;;;;;;5035650;28;20232;-59
2022/01/26 15:40:20;;;;;;;76.50;33.05;;;;;;;;;;5155008;27;20205;-58
2022/01/26 15:42:59;;;;;;;73.78;28.48;;;;;;;;;;5133369;28;20179;-59
2022/01/26 15:51:00;;;;;;;57.45;25.58;;;;;;;;;;5132124;28;20692;-60
2022/01/26 15:59:07;;;;;;;62.08;26.45;;;;;;;;;;5131697;28;20336;-60
2022/01/26 16:04:30;;;;;;;80.93;32.40;;;;;;;;;;5131071;28;20251;-60
2022/01/26 16:07:04;;;;;;;69.57;27.35;;;;;;;;;;5131358;28;20654;-60
2022/01/26 16:21:01;;;;;;;59.53;25.70;;;;;;;;;;5068424;28;20322;-60
2022/01/26 17:24:54;;;;;;;58.63;23.33;;;;;;;;;;5095175;28;20548;-55
2022/01/26 17:47:02;;;;;;;54.38;26.27;;;;;;;;;;5094916;28;20686;-57
2022/01/26 18:03:59;;;;;;;54.67;24.25;;;;;;;;;;5094808;28;20196;-56
2022/01/26 18:17:45;;;;;;;48.78;21.73;;;;;;;;;;5094428;28;20224;-58
2022/01/26 18:50:43;;;;;;;48.03;20.38;;;;;;;;;;5094246;28;20180;-57
2022/01/26 18:53:11;;;;;;;41.42;19.05;;;;;;;;;;5094214;28;20682;-57
2022/01/26 18:55:40;;;;;;;51.03;21.05;;;;;;;;;;5094423;28;20238;-57
2022/01/26 18:58:08;;;;;;;35.42;19.33;;;;;;;;;;5094613;28;20227;-57
2022/01/26 19:00:35;;;;;;;39.15;16.50;;;;;;;;;;5094452;28;20664;-56
2022/01/26 19:03:03;;;;;;;34.72;18.65;;;;;;;;;;5094214;28;20287;-56
2022/01/26 19:05:30;;;;;;;42.25;17.67;;;;;;;;;;5093999;28;20196;-56
2022/01/26 19:07:58;;;;;;;34.30;17.25;;;;;;;;;;5093733;28;20221;-56
2022/01/26 19:10:26;;;;;;;37.95;16.45;;;;;;;;;;5093355;28;20713;-57
2022/01/26 19:12:56;;;;;;;38.63;17.48;;;;;;;;;;5093767;28;20204;-56
2022/01/26 19:15:27;;;;;;;37.15;17.30;;;;;;;;;;5093502;28;20199;-57
2022/01/26 19:18:00;;;;;;;36.75;17.38;;;;;;;;;;5093150;28;20787;-56
2022/01/26 19:20:44;;;;;;;40.05;18.80;;;;;;;;;;5094359;28;20189;-57
2022/01/26 19:23:30;;;;;;;41.33;18.63;;;;;;;;;;5093898;28;20641;-57
2022/01/26 19:26:02;;;;;;;39.17;17.50;;;;;;;;;;5093856;28;20219;-57
2022/01/26 19:28:35;;;;;;;34.28;17.13;;;;;;;;;;5093585;28;20232;-56
2022/01/26 19:45:05;;;;;;;37.78;16.85;;;;;;;;;;5093761;28;20226;-57
2022/01/26 19:53:02;;;;;;;32.92;14.38;;;;;;;;;;5093655;28;20645;-58
2022/01/26 19:55:29;;;;;;;35.55;16.42;;;;;;;;;;5093615;28;20208;-58
2022/01/26 19:57:57;;;;;;;29.75;16.30;;;;;;;;;;5093771;28;20223;-57
2022/01/26 20:00:25;;;;;;;26.58;14.07;;;;;;;;;;5093420;28;20640;-57
2022/01/26 20:02:53;;;;;;;29.63;14.75;;;;;;;;;;5093384;28;20211;-58
2022/01/26 20:05:20;;;;;;;26.25;14.57;;;;;;;;;;5093543;28;20204;-58
2022/01/26 20:07:51;;;;;;;29.67;15.35;;;;;;;;;;5093268;28;20576;-57
2022/01/26 20:10:25;;;;;;;32.60;17.25;;;;;;;;;;5093280;28;20573;-58
2022/01/26 20:13:00;;;;;;;30.63;15.70;;;;;;;;;;5093535;28;20246;-58
2022/01/26 20:15:29;;;;;;;27.35;14.80;;;;;;;;;;5093350;28;20245;-58
2022/01/26 20:17:56;;;;;;;29.60;16.13;;;;;;;;;;5093395;28;20231;-58
2022/01/26 20:20:25;;;;;;;34.75;15.73;;;;;;;;;;5093462;28;20200;-58
2022/01/26 20:22:52;;;;;;;31.75;18.20;;;;;;;;;;5095165;28;20201;-58
2022/01/26 20:25:19;;;;;;;31.20;16.83;;;;;;;;;;5096895;28;20199;-58
2022/01/26 20:27:47;;;;;;;35.95;18.95;;;;;;;;;;5097168;28;20285;-58